sensor_id;sensor_type;location;lat;lon;timestamp;P1;P2;P0
31330;PMS5003;34067;39.548;-76.088;2023-12-20T00:00:37;1;1;
31330;PMS5003;34067;39.548;-76.088;2023-12-20T00:03:05;2;2;
31330;PMS5003;34067;39.548;-76.088;2023-12-20T00:05:33;2;2;
31330;PMS5003;34067;39.548;-76.088;2023-12-20T00:08:00;0;0;
31330;PMS5003;34067;39.548;-76.088;2023-12-20T00:10:28;1;1;
31330;PMS5003;34067;39.548;-76.088;2023-12-20T00:12:55;1;1;
31330;PMS5003;34067;39.548;-76.088;2023-12-20T00:15:23;1;1;
31330;PMS5003;34067;39.548;-76.088;2023-12-20T00:17:50;1;1;
31330;PMS5003;34067;39.548;-76.088;2023-12-20T00:20:19;1;1;
31330;PMS5003;34067;39.548;-76.088;2023-12-20T00:22:47;1;1;
31330;PMS5003;34067;39.548;-76.088;2023-12-20T00:25:15;1;1;
31330;PMS5003;34067;39.548;-76.088;2023-12-20T00:27:43;0;0;
31330;PMS5003;34067;39.548;-76.088;2023-12-20T00:30:11;0;0;
31330;PMS5003;34067;39.548;-76.088;2023-12-20T00:32:39;1;1;
31330;PMS5003;34067;39.548;-76.088;2023-12-20T00:35:07;1;1;
31330;PMS5003;34067;39.548;-76.088;2023-12-20T00:37:34;1;1;
31330;PMS5003;34067;39.548;-76.088;2023-12-20T00:40:04;1;1;
31330;PMS5003;34067;39.548;-76.088;2023-12-20T00:42:33;1;0;
31330;PMS5003;34067;39.548;-76.088;2023-12-20T00:45:01;0;0;
31330;PMS5003;34067;39.548;-76.088;2023-12-20T00:47:30;1;0;
31330;PMS5003;34067;39.548;-76.088;2023-12-20T00:49:58;0;0;
31330;PMS5003;34067;39.548;-76.088;2023-12-20T00:52:26;1;1;
31330;PMS5003;34067;39.548;-76.088;2023-12-20T00:54:53;1;1;
31330;PMS5003;34067;39.548;-76.088;2023-12-20T00:57:21;1;1;
31330;PMS5003;34067;39.548;-76.088;2023-12-20T00:59:48;1;1;
31330;PMS5003;34067;39.548;-76.088;2023-12-20T01:02:16;0;0;
31330;PMS5003;34067;39.548;-76.088;2023-12-20T01:04:44;1;1;
31330;PMS5003;34067;39.548;-76.088;2023-12-20T01:07:13;2;2;
31330;PMS5003;34067;39.548;-76.088;2023-12-20T01:09:40;1;1;
31330;PMS5003;34067;39.548;-76.088;2023-12-20T01:12:08;1;1;
31330;PMS5003;34067;39.548;-76.088;2023-12-20T01:14:35;2;2;
31330;PMS5003;34067;39.548;-76.088;2023-12-20T01:17:03;1;1;
31330;PMS5003;34067;39.548;-76.088;2023-12-20T01:19:31;1;1;
31330;PMS5003;34067;39.548;-76.088;2023-12-20T01:21:59;1;1;
31330;PMS5003;34067;39.548;-76.088;2023-12-20T01:24:27;0;0;
31330;PMS5003;34067;39.548;-76.088;2023-12-20T01:26:54;1;1;
31330;PMS5003;34067;39.548;-76.088;2023-12-20T01:29:22;1;1;
31330;PMS5003;34067;39.548;-76.088;2023-12-20T01:31:49;0;0;
31330;PMS5003;34067;39.548;-76.088;2023-12-20T01:34:17;1;1;
31330;PMS5003;34067;39.548;-76.088;2023-12-20T01:36:45;1;1;
31330;PMS5003;34067;39.548;-76.088;2023-12-20T01:39:13;1;1;
31330;PMS5003;34067;39.548;-76.088;2023-12-20T01:41:40;1;1;
31330;PMS5003;34067;39.548;-76.088;2023-12-20T01:44:08;1;1;
31330;PMS5003;34067;39.548;-76.088;2023-12-20T01:46:36;2;2;
31330;PMS5003;34067;39.548;-76.088;2023-12-20T01:49:05;2;2;
31330;PMS5003;34067;39.548;-76.088;2023-12-20T01:51:33;1;1;
31330;PMS5003;34067;39.548;-76.088;2023-12-20T01:54:02;2;2;
31330;PMS5003;34067;39.548;-76.088;2023-12-20T01:56:30;1;1;
31330;PMS5003;34067;39.548;-76.088;2023-12-20T01:59:00;2;2;
31330;PMS5003;34067;39.548;-76.088;2023-12-20T02:01:28;2;2;
31330;PMS5003;34067;39.548;-76.088;2023-12-20T02:03:57;2;1;
31330;PMS5003;34067;39.548;-76.088;2023-12-20T02:06:26;1;1;
31330;PMS5003;34067;39.548;-76.088;2023-12-20T02:08:57;1;1;
31330;PMS5003;34067;39.548;-76.088;2023-12-20T02:11:25;1;1;
31330;PMS5003;34067;39.548;-76.088;2023-12-20T02:13:54;2;2;
31330;PMS5003;34067;39.548;-76.088;2023-12-20T02:16:21;2;2;
31330;PMS5003;34067;39.548;-76.088;2023-12-20T02:18:49;2;2;
31330;PMS5003;34067;39.548;-76.088;2023-12-20T02:21:17;1;1;
31330;PMS5003;34067;39.548;-76.088;2023-12-20T02:23:44;2;2;
31330;PMS5003;34067;39.548;-76.088;2023-12-20T02:26:12;2;2;
31330;PMS5003;34067;39.548;-76.088;2023-12-20T02:28:40;2;2;
31330;PMS5003;34067;39.548;-76.088;2023-12-20T02:31:08;2;2;
31330;PMS5003;34067;39.548;-76.088;2023-12-20T02:33:35;2;2;
31330;PMS5003;34067;39.548;-76.088;2023-12-20T02:36:03;3;2;
31330;PMS5003;34067;39.548;-76.088;2023-12-20T02:38:32;2;2;
31330;PMS5003;34067;39.548;-76.088;2023-12-20T02:41:00;2;2;
31330;PMS5003;34067;39.548;-76.088;2023-12-20T02:43:28;2;2;
31330;PMS5003;34067;39.548;-76.088;2023-12-20T02:45:55;2;2;
31330;PMS5003;34067;39.548;-76.088;2023-12-20T02:48:23;2;2;
31330;PMS5003;34067;39.548;-76.088;2023-12-20T02:50:50;2;2;
31330;PMS5003;34067;39.548;-76.088;2023-12-20T02:53:19;2;2;
31330;PMS5003;34067;39.548;-76.088;2023-12-20T02:55:46;2;2;
31330;PMS5003;34067;39.548;-76.088;2023-12-20T02:58:14;4;3;
31330;PMS5003;34067;39.548;-76.088;2023-12-20T03:00:42;2;2;
31330;PMS5003;34067;39.548;-76.088;2023-12-20T03:03:09;2;2;
31330;PMS5003;34067;39.548;-76.088;2023-12-20T03:05:37;2;2;
31330;PMS5003;34067;39.548;-76.088;2023-12-20T03:08:05;3;3;
31330;PMS5003;34067;39.548;-76.088;2023-12-20T03:10:33;3;2;
31330;PMS5003;34067;39.548;-76.088;2023-12-20T03:13:01;2;2;
31330;PMS5003;34067;39.548;-76.088;2023-12-20T03:15:28;1;1;
31330;PMS5003;34067;39.548;-76.088;2023-12-20T03:17:56;2;2;
31330;PMS5003;34067;39.548;-76.088;2023-12-20T03:20:23;2;2;
31330;PMS5003;34067;39.548;-76.088;2023-12-20T03:22:51;2;2;
31330;PMS5003;34067;39.548;-76.088;2023-12-20T03:25:19;2;2;
31330;PMS5003;34067;39.548;-76.088;2023-12-20T03:27:47;3;3;
31330;PMS5003;34067;39.548;-76.088;2023-12-20T03:30:15;3;3;
31330;PMS5003;34067;39.548;-76.088;2023-12-20T03:32:43;2;2;
31330;PMS5003;34067;39.548;-76.088;2023-12-20T03:35:11;3;3;
31330;PMS5003;34067;39.548;-76.088;2023-12-20T03:37:38;2;2;
31330;PMS5003;34067;39.548;-76.088;2023-12-20T03:40:06;4;4;
31330;PMS5003;34067;39.548;-76.088;2023-12-20T03:42:34;4;3;
31330;PMS5003;34067;39.548;-76.088;2023-12-20T03:45:04;3;3;
31330;PMS5003;34067;39.548;-76.088;2023-12-20T03:47:32;3;3;
31330;PMS5003;34067;39.548;-76.088;2023-12-20T03:50:00;4;3;
31330;PMS5003;34067;39.548;-76.088;2023-12-20T03:52:27;3;3;
31330;PMS5003;34067;39.548;-76.088;2023-12-20T03:54:55;3;3;
31330;PMS5003;34067;39.548;-76.088;2023-12-20T03:57:23;4;4;
31330;PMS5003;34067;39.548;-76.088;2023-12-20T03:59:50;3;3;
31330;PMS5003;34067;39.548;-76.088;2023-12-20T04:02:18;1;1;
31330;PMS5003;34067;39.548;-76.088;2023-12-20T04:04:46;7;4;
31330;PMS5003;34067;39.548;-76.088;2023-12-20T04:07:13;4;3;
31330;PMS5003;34067;39.548;-76.088;2023-12-20T04:09:41;4;3;
31330;PMS5003;34067;39.548;-76.088;2023-12-20T04:12:09;4;3;
31330;PMS5003;34067;39.548;-76.088;2023-12-20T04:14:37;3;3;
31330;PMS5003;34067;39.548;-76.088;2023-12-20T04:17:05;5;5;
31330;PMS5003;34067;39.548;-76.088;2023-12-20T04:19:33;6;6;
31330;PMS5003;34067;39.548;-76.088;2023-12-20T04:22:01;3;3;
31330;PMS5003;34067;39.548;-76.088;2023-12-20T04:24:30;4;4;
31330;PMS5003;34067;39.548;-76.088;2023-12-20T04:26:57;4;4;
31330;PMS5003;34067;39.548;-76.088;2023-12-20T04:29:25;6;4;
31330;PMS5003;34067;39.548;-76.088;2023-12-20T04:31:52;4;4;
31330;PMS5003;34067;39.548;-76.088;2023-12-20T04:34:20;4;4;
31330;PMS5003;34067;39.548;-76.088;2023-12-20T04:36:49;3;3;
31330;PMS5003;34067;39.548;-76.088;2023-12-20T04:39:16;6;4;
31330;PMS5003;34067;39.548;-76.088;2023-12-20T04:41:44;6;4;
31330;PMS5003;34067;39.548;-76.088;2023-12-20T04:44:11;7;7;
31330;PMS5003;34067;39.548;-76.088;2023-12-20T04:46:39;4;4;
31330;PMS5003;34067;39.548;-76.088;2023-12-20T04:49:07;4;3;
31330;PMS5003;34067;39.548;-76.088;2023-12-20T04:51:35;8;6;
31330;PMS5003;34067;39.548;-76.088;2023-12-20T04:54:03;8;7;
31330;PMS5003;34067;39.548;-76.088;2023-12-20T04:56:30;4;4;
31330;PMS5003;34067;39.548;-76.088;2023-12-20T04:58:58;7;7;
31330;PMS5003;34067;39.548;-76.088;2023-12-20T05:01:26;3;3;
31330;PMS5003;34067;39.548;-76.088;2023-12-20T05:03:54;4;4;
31330;PMS5003;34067;39.548;-76.088;2023-12-20T05:06:22;3;3;
31330;PMS5003;34067;39.548;-76.088;2023-12-20T05:08:49;6;4;
31330;PMS5003;34067;39.548;-76.088;2023-12-20T05:11:17;6;6;
31330;PMS5003;34067;39.548;-76.088;2023-12-20T05:13:45;6;4;
31330;PMS5003;34067;39.548;-76.088;2023-12-20T05:16:12;3;3;
31330;PMS5003;34067;39.548;-76.088;2023-12-20T05:18:40;6;4;
31330;PMS5003;34067;39.548;-76.088;2023-12-20T05:21:07;6;6;
31330;PMS5003;34067;39.548;-76.088;2023-12-20T05:23:35;6;6;
31330;PMS5003;34067;39.548;-76.088;2023-12-20T05:26:03;6;6;
31330;PMS5003;34067;39.548;-76.088;2023-12-20T05:28:30;8;8;
31330;PMS5003;34067;39.548;-76.088;2023-12-20T05:30:58;4;4;
31330;PMS5003;34067;39.548;-76.088;2023-12-20T05:33:26;9;7;
31330;PMS5003;34067;39.548;-76.088;2023-12-20T05:35:53;7;6;
31330;PMS5003;34067;39.548;-76.088;2023-12-20T05:38:21;6;4;
31330;PMS5003;34067;39.548;-76.088;2023-12-20T05:40:48;4;4;
31330;PMS5003;34067;39.548;-76.088;2023-12-20T05:43:16;6;6;
31330;PMS5003;34067;39.548;-76.088;2023-12-20T05:45:44;6;6;
31330;PMS5003;34067;39.548;-76.088;2023-12-20T05:48:11;6;6;
31330;PMS5003;34067;39.548;-76.088;2023-12-20T05:50:39;5;5;
31330;PMS5003;34067;39.548;-76.088;2023-12-20T05:53:07;8;7;
31330;PMS5003;34067;39.548;-76.088;2023-12-20T05:55:34;7;7;
31330;PMS5003;34067;39.548;-76.088;2023-12-20T05:58:02;7;6;
31330;PMS5003;34067;39.548;-76.088;2023-12-20T06:03:09;6;6;
31330;PMS5003;34067;39.548;-76.088;2023-12-20T06:05:37;4;4;
31330;PMS5003;34067;39.548;-76.088;2023-12-20T06:08:05;7;7;
31330;PMS5003;34067;39.548;-76.088;2023-12-20T06:10:33;7;7;
31330;PMS5003;34067;39.548;-76.088;2023-12-20T06:13:01;5;5;
31330;PMS5003;34067;39.548;-76.088;2023-12-20T06:15:28;7;7;
31330;PMS5003;34067;39.548;-76.088;2023-12-20T06:17:56;6;6;
31330;PMS5003;34067;39.548;-76.088;2023-12-20T06:20:24;6;5;
31330;PMS5003;34067;39.548;-76.088;2023-12-20T06:22:53;5;5;
31330;PMS5003;34067;39.548;-76.088;2023-12-20T06:25:20;7;7;
31330;PMS5003;34067;39.548;-76.088;2023-12-20T06:27:48;7;7;
31330;PMS5003;34067;39.548;-76.088;2023-12-20T06:30:17;6;5;
31330;PMS5003;34067;39.548;-76.088;2023-12-20T06:32:44;7;6;
31330;PMS5003;34067;39.548;-76.088;2023-12-20T06:35:12;7;6;
31330;PMS5003;34067;39.548;-76.088;2023-12-20T06:37:40;7;7;
31330;PMS5003;34067;39.548;-76.088;2023-12-20T06:40:08;7;7;
31330;PMS5003;34067;39.548;-76.088;2023-12-20T06:42:37;6;5;
31330;PMS5003;34067;39.548;-76.088;2023-12-20T06:45:05;6;5;
31330;PMS5003;34067;39.548;-76.088;2023-12-20T06:47:33;6;5;
31330;PMS5003;34067;39.548;-76.088;2023-12-20T06:50:01;5;3;
31330;PMS5003;34067;39.548;-76.088;2023-12-20T06:52:29;3;3;
31330;PMS5003;34067;39.548;-76.088;2023-12-20T06:54:57;6;6;
31330;PMS5003;34067;39.548;-76.088;2023-12-20T06:57:24;6;6;
31330;PMS5003;34067;39.548;-76.088;2023-12-20T06:59:52;7;5;
31330;PMS5003;34067;39.548;-76.088;2023-12-20T07:02:20;6;5;
31330;PMS5003;34067;39.548;-76.088;2023-12-20T07:04:48;6;5;
31330;PMS5003;34067;39.548;-76.088;2023-12-20T07:07:16;5;3;
31330;PMS5003;34067;39.548;-76.088;2023-12-20T07:09:43;5;5;
31330;PMS5003;34067;39.548;-76.088;2023-12-20T07:12:11;6;5;
31330;PMS5003;34067;39.548;-76.088;2023-12-20T07:14:38;5;3;
31330;PMS5003;34067;39.548;-76.088;2023-12-20T07:17:06;6;6;
31330;PMS5003;34067;39.548;-76.088;2023-12-20T07:19:34;6;6;
31330;PMS5003;34067;39.548;-76.088;2023-12-20T07:22:03;3;3;
31330;PMS5003;34067;39.548;-76.088;2023-12-20T07:24:31;5;3;
31330;PMS5003;34067;39.548;-76.088;2023-12-20T07:26:59;5;5;
31330;PMS5003;34067;39.548;-76.088;2023-12-20T07:29:27;5;3;
31330;PMS5003;34067;39.548;-76.088;2023-12-20T07:31:55;5;5;
31330;PMS5003;34067;39.548;-76.088;2023-12-20T07:34:24;3;3;
31330;PMS5003;34067;39.548;-76.088;2023-12-20T07:36:51;3;3;
31330;PMS5003;34067;39.548;-76.088;2023-12-20T07:39:19;5;5;
31330;PMS5003;34067;39.548;-76.088;2023-12-20T07:41:46;6;6;
31330;PMS5003;34067;39.548;-76.088;2023-12-20T07:44:14;5;5;
31330;PMS5003;34067;39.548;-76.088;2023-12-20T07:46:42;3;3;
31330;PMS5003;34067;39.548;-76.088;2023-12-20T07:49:10;5;3;
31330;PMS5003;34067;39.548;-76.088;2023-12-20T07:51:38;6;5;
31330;PMS5003;34067;39.548;-76.088;2023-12-20T07:54:06;5;3;
31330;PMS5003;34067;39.548;-76.088;2023-12-20T07:56:33;6;5;
31330;PMS5003;34067;39.548;-76.088;2023-12-20T07:59:01;5;3;
31330;PMS5003;34067;39.548;-76.088;2023-12-20T08:01:28;5;5;
31330;PMS5003;34067;39.548;-76.088;2023-12-20T08:03:56;5;5;
31330;PMS5003;34067;39.548;-76.088;2023-12-20T08:06:24;5;5;
31330;PMS5003;34067;39.548;-76.088;2023-12-20T08:08:51;3;3;
31330;PMS5003;34067;39.548;-76.088;2023-12-20T08:11:19;5;5;
31330;PMS5003;34067;39.548;-76.088;2023-12-20T08:13:47;6;3;
31330;PMS5003;34067;39.548;-76.088;2023-12-20T08:16:15;3;3;
31330;PMS5003;34067;39.548;-76.088;2023-12-20T08:18:42;5;3;
31330;PMS5003;34067;39.548;-76.088;2023-12-20T08:21:11;2;2;
31330;PMS5003;34067;39.548;-76.088;2023-12-20T08:23:39;5;3;
31330;PMS5003;34067;39.548;-76.088;2023-12-20T08:26:07;5;3;
31330;PMS5003;34067;39.548;-76.088;2023-12-20T08:28:36;5;5;
31330;PMS5003;34067;39.548;-76.088;2023-12-20T08:31:04;5;5;
31330;PMS5003;34067;39.548;-76.088;2023-12-20T08:33:32;5;3;
31330;PMS5003;34067;39.548;-76.088;2023-12-20T08:36:00;5;3;
31330;PMS5003;34067;39.548;-76.088;2023-12-20T08:38:27;3;3;
31330;PMS5003;34067;39.548;-76.088;2023-12-20T08:40:55;6;6;
31330;PMS5003;34067;39.548;-76.088;2023-12-20T08:43:22;3;3;
31330;PMS5003;34067;39.548;-76.088;2023-12-20T08:45:50;5;3;
31330;PMS5003;34067;39.548;-76.088;2023-12-20T08:48:18;3;3;
31330;PMS5003;34067;39.548;-76.088;2023-12-20T08:50:45;2;2;
31330;PMS5003;34067;39.548;-76.088;2023-12-20T08:53:13;3;3;
31330;PMS5003;34067;39.548;-76.088;2023-12-20T08:55:41;5;3;
31330;PMS5003;34067;39.548;-76.088;2023-12-20T08:58:08;2;2;
31330;PMS5003;34067;39.548;-76.088;2023-12-20T09:00:36;2;2;
31330;PMS5003;34067;39.548;-76.088;2023-12-20T09:03:04;3;3;
31330;PMS5003;34067;39.548;-76.088;2023-12-20T09:05:32;3;3;
31330;PMS5003;34067;39.548;-76.088;2023-12-20T09:08:00;3;3;
31330;PMS5003;34067;39.548;-76.088;2023-12-20T09:10:27;5;3;
31330;PMS5003;34067;39.548;-76.088;2023-12-20T09:12:55;3;3;
31330;PMS5003;34067;39.548;-76.088;2023-12-20T09:15:23;5;3;
31330;PMS5003;34067;39.548;-76.088;2023-12-20T09:17:52;2;2;
31330;PMS5003;34067;39.548;-76.088;2023-12-20T09:20:20;5;3;
31330;PMS5003;34067;39.548;-76.088;2023-12-20T09:22:48;2;2;
31330;PMS5003;34067;39.548;-76.088;2023-12-20T09:25:16;3;3;
31330;PMS5003;34067;39.548;-76.088;2023-12-20T09:27:43;6;3;
31330;PMS5003;34067;39.548;-76.088;2023-12-20T09:30:11;6;6;
31330;PMS5003;34067;39.548;-76.088;2023-12-20T09:32:40;6;5;
31330;PMS5003;34067;39.548;-76.088;2023-12-20T09:35:08;5;3;
31330;PMS5003;34067;39.548;-76.088;2023-12-20T09:37:36;3;3;
31330;PMS5003;34067;39.548;-76.088;2023-12-20T09:40:04;5;3;
31330;PMS5003;34067;39.548;-76.088;2023-12-20T09:42:38;3;3;
31330;PMS5003;34067;39.548;-76.088;2023-12-20T09:45:12;6;6;
31330;PMS5003;34067;39.548;-76.088;2023-12-20T09:47:41;5;5;
31330;PMS5003;34067;39.548;-76.088;2023-12-20T09:50:10;6;6;
31330;PMS5003;34067;39.548;-76.088;2023-12-20T09:52:38;6;5;
31330;PMS5003;34067;39.548;-76.088;2023-12-20T09:55:07;3;3;
31330;PMS5003;34067;39.548;-76.088;2023-12-20T09:57:35;3;3;
31330;PMS5003;34067;39.548;-76.088;2023-12-20T10:00:03;8;7;
31330;PMS5003;34067;39.548;-76.088;2023-12-20T10:02:32;8;5;
31330;PMS5003;34067;39.548;-76.088;2023-12-20T10:05:06;6;6;
31330;PMS5003;34067;39.548;-76.088;2023-12-20T10:07:40;6;5;
31330;PMS5003;34067;39.548;-76.088;2023-12-20T10:10:08;5;5;
31330;PMS5003;34067;39.548;-76.088;2023-12-20T10:12:38;5;3;
31330;PMS5003;34067;39.548;-76.088;2023-12-20T10:15:06;4;4;
31330;PMS5003;34067;39.548;-76.088;2023-12-20T10:17:35;3;3;
31330;PMS5003;34067;39.548;-76.088;2023-12-20T10:20:03;6;5;
31330;PMS5003;34067;39.548;-76.088;2023-12-20T10:22:32;8;7;
31330;PMS5003;34067;39.548;-76.088;2023-12-20T10:25:00;7;6;
31330;PMS5003;34067;39.548;-76.088;2023-12-20T10:27:28;7;7;
31330;PMS5003;34067;39.548;-76.088;2023-12-20T10:29:55;5;5;
31330;PMS5003;34067;39.548;-76.088;2023-12-20T10:32:26;7;7;
31330;PMS5003;34067;39.548;-76.088;2023-12-20T10:34:54;6;6;
31330;PMS5003;34067;39.548;-76.088;2023-12-20T10:37:23;7;6;
31330;PMS5003;34067;39.548;-76.088;2023-12-20T10:39:51;7;5;
31330;PMS5003;34067;39.548;-76.088;2023-12-20T10:42:20;7;7;
31330;PMS5003;34067;39.548;-76.088;2023-12-20T10:44:49;6;6;
31330;PMS5003;34067;39.548;-76.088;2023-12-20T10:47:17;5;5;
31330;PMS5003;34067;39.548;-76.088;2023-12-20T10:49:45;6;5;
31330;PMS5003;34067;39.548;-76.088;2023-12-20T10:52:13;7;7;
31330;PMS5003;34067;39.548;-76.088;2023-12-20T10:54:41;6;6;
31330;PMS5003;34067;39.548;-76.088;2023-12-20T10:57:09;7;5;
31330;PMS5003;34067;39.548;-76.088;2023-12-20T10:59:38;7;7;
31330;PMS5003;34067;39.548;-76.088;2023-12-20T11:02:08;6;6;
31330;PMS5003;34067;39.548;-76.088;2023-12-20T11:04:37;7;6;
31330;PMS5003;34067;39.548;-76.088;2023-12-20T11:07:17;7;7;
31330;PMS5003;34067;39.548;-76.088;2023-12-20T11:09:53;6;5;
31330;PMS5003;34067;39.548;-76.088;2023-12-20T11:12:26;6;6;
31330;PMS5003;34067;39.548;-76.088;2023-12-20T11:15:02;8;7;
31330;PMS5003;34067;39.548;-76.088;2023-12-20T11:17:31;6;5;
31330;PMS5003;34067;39.548;-76.088;2023-12-20T11:20:08;5;5;
31330;PMS5003;34067;39.548;-76.088;2023-12-20T11:22:36;8;7;
31330;PMS5003;34067;39.548;-76.088;2023-12-20T11:25:04;5;5;
31330;PMS5003;34067;39.548;-76.088;2023-12-20T11:27:34;7;6;
31330;PMS5003;34067;39.548;-76.088;2023-12-20T11:30:03;8;6;
31330;PMS5003;34067;39.548;-76.088;2023-12-20T11:32:33;8;7;
31330;PMS5003;34067;39.548;-76.088;2023-12-20T11:35:16;8;8;
31330;PMS5003;34067;39.548;-76.088;2023-12-20T11:37:45;6;6;
31330;PMS5003;34067;39.548;-76.088;2023-12-20T11:40:15;7;6;
31330;PMS5003;34067;39.548;-76.088;2023-12-20T11:42:45;5;5;
31330;PMS5003;34067;39.548;-76.088;2023-12-20T11:45:17;6;6;
31330;PMS5003;34067;39.548;-76.088;2023-12-20T11:47:47;6;6;
31330;PMS5003;34067;39.548;-76.088;2023-12-20T11:50:18;10;10;
31330;PMS5003;34067;39.548;-76.088;2023-12-20T11:52:48;6;6;
31330;PMS5003;34067;39.548;-76.088;2023-12-20T11:55:16;7;7;
31330;PMS5003;34067;39.548;-76.088;2023-12-20T11:57:44;6;6;
31330;PMS5003;34067;39.548;-76.088;2023-12-20T12:00:13;6;6;
31330;PMS5003;34067;39.548;-76.088;2023-12-20T12:02:42;6;6;
31330;PMS5003;34067;39.548;-76.088;2023-12-20T12:05:09;10;8;
31330;PMS5003;34067;39.548;-76.088;2023-12-20T12:07:37;7;7;
31330;PMS5003;34067;39.548;-76.088;2023-12-20T12:10:05;8;7;
31330;PMS5003;34067;39.548;-76.088;2023-12-20T12:12:34;7;6;
31330;PMS5003;34067;39.548;-76.088;2023-12-20T12:15:03;10;7;
31330;PMS5003;34067;39.548;-76.088;2023-12-20T12:17:32;6;6;
31330;PMS5003;34067;39.548;-76.088;2023-12-20T12:20:03;8;7;
31330;PMS5003;34067;39.548;-76.088;2023-12-20T12:22:32;7;7;
31330;PMS5003;34067;39.548;-76.088;2023-12-20T12:25:09;12;11;
31330;PMS5003;34067;39.548;-76.088;2023-12-20T12:27:39;8;7;
31330;PMS5003;34067;39.548;-76.088;2023-12-20T12:30:08;6;6;
31330;PMS5003;34067;39.548;-76.088;2023-12-20T12:32:37;8;7;
31330;PMS5003;34067;39.548;-76.088;2023-12-20T12:35:05;11;8;
31330;PMS5003;34067;39.548;-76.088;2023-12-20T12:37:34;7;7;
31330;PMS5003;34067;39.548;-76.088;2023-12-20T12:40:03;8;7;
31330;PMS5003;34067;39.548;-76.088;2023-12-20T12:42:32;7;7;
31330;PMS5003;34067;39.548;-76.088;2023-12-20T12:44:59;8;8;
31330;PMS5003;34067;39.548;-76.088;2023-12-20T12:47:27;10;8;
31330;PMS5003;34067;39.548;-76.088;2023-12-20T12:49:55;10;10;
31330;PMS5003;34067;39.548;-76.088;2023-12-20T12:52:23;7;6;
31330;PMS5003;34067;39.548;-76.088;2023-12-20T12:54:51;8;8;
31330;PMS5003;34067;39.548;-76.088;2023-12-20T12:57:19;6;6;
31330;PMS5003;34067;39.548;-76.088;2023-12-20T12:59:47;8;8;
31330;PMS5003;34067;39.548;-76.088;2023-12-20T13:02:15;11;7;
31330;PMS5003;34067;39.548;-76.088;2023-12-20T13:04:43;7;7;
31330;PMS5003;34067;39.548;-76.088;2023-12-20T13:07:11;12;11;
31330;PMS5003;34067;39.548;-76.088;2023-12-20T13:09:39;11;8;
31330;PMS5003;34067;39.548;-76.088;2023-12-20T13:12:08;8;7;
31330;PMS5003;34067;39.548;-76.088;2023-12-20T13:14:35;8;7;
31330;PMS5003;34067;39.548;-76.088;2023-12-20T13:17:03;8;7;
31330;PMS5003;34067;39.548;-76.088;2023-12-20T13:19:31;9;8;
31330;PMS5003;34067;39.548;-76.088;2023-12-20T13:21:59;8;7;
31330;PMS5003;34067;39.548;-76.088;2023-12-20T13:24:27;7;7;
31330;PMS5003;34067;39.548;-76.088;2023-12-20T13:26:54;8;7;
31330;PMS5003;34067;39.548;-76.088;2023-12-20T13:29:23;8;7;
31330;PMS5003;34067;39.548;-76.088;2023-12-20T13:31:51;11;8;
31330;PMS5003;34067;39.548;-76.088;2023-12-20T13:34:19;7;7;
31330;PMS5003;34067;39.548;-76.088;2023-12-20T13:36:46;12;8;
31330;PMS5003;34067;39.548;-76.088;2023-12-20T13:39:14;12;11;
31330;PMS5003;34067;39.548;-76.088;2023-12-20T13:41:42;9;8;
31330;PMS5003;34067;39.548;-76.088;2023-12-20T13:44:09;9;9;
31330;PMS5003;34067;39.548;-76.088;2023-12-20T13:46:37;9;8;
31330;PMS5003;34067;39.548;-76.088;2023-12-20T13:49:05;9;8;
31330;PMS5003;34067;39.548;-76.088;2023-12-20T13:51:33;11;9;
31330;PMS5003;34067;39.548;-76.088;2023-12-20T13:54:01;8;8;
31330;PMS5003;34067;39.548;-76.088;2023-12-20T13:56:29;8;8;
31330;PMS5003;34067;39.548;-76.088;2023-12-20T13:58:57;7;6;
31330;PMS5003;34067;39.548;-76.088;2023-12-20T14:01:25;11;9;
31330;PMS5003;34067;39.548;-76.088;2023-12-20T14:03:52;11;9;
31330;PMS5003;34067;39.548;-76.088;2023-12-20T14:06:20;8;7;
31330;PMS5003;34067;39.548;-76.088;2023-12-20T14:08:47;8;7;
31330;PMS5003;34067;39.548;-76.088;2023-12-20T14:11:16;9;9;
31330;PMS5003;34067;39.548;-76.088;2023-12-20T14:13:44;11;11;
31330;PMS5003;34067;39.548;-76.088;2023-12-20T14:16:12;8;8;
31330;PMS5003;34067;39.548;-76.088;2023-12-20T14:18:39;6;6;
31330;PMS5003;34067;39.548;-76.088;2023-12-20T14:21:08;7;7;
31330;PMS5003;34067;39.548;-76.088;2023-12-20T14:23:35;9;7;
31330;PMS5003;34067;39.548;-76.088;2023-12-20T14:26:03;7;6;
31330;PMS5003;34067;39.548;-76.088;2023-12-20T14:28:31;9;9;
31330;PMS5003;34067;39.548;-76.088;2023-12-20T14:30:58;9;8;
31330;PMS5003;34067;39.548;-76.088;2023-12-20T14:33:26;12;9;
31330;PMS5003;34067;39.548;-76.088;2023-12-20T14:35:54;8;7;
31330;PMS5003;34067;39.548;-76.088;2023-12-20T14:38:21;9;8;
31330;PMS5003;34067;39.548;-76.088;2023-12-20T14:40:49;8;8;
31330;PMS5003;34067;39.548;-76.088;2023-12-20T14:43:17;11;9;
31330;PMS5003;34067;39.548;-76.088;2023-12-20T14:45:45;8;7;
31330;PMS5003;34067;39.548;-76.088;2023-12-20T14:48:12;10;9;
31330;PMS5003;34067;39.548;-76.088;2023-12-20T14:50:40;9;8;
31330;PMS5003;34067;39.548;-76.088;2023-12-20T14:53:08;8;7;
31330;PMS5003;34067;39.548;-76.088;2023-12-20T14:55:36;9;8;
31330;PMS5003;34067;39.548;-76.088;2023-12-20T14:58:04;9;9;
31330;PMS5003;34067;39.548;-76.088;2023-12-20T15:00:31;8;8;
31330;PMS5003;34067;39.548;-76.088;2023-12-20T15:02:59;10;10;
31330;PMS5003;34067;39.548;-76.088;2023-12-20T15:05:27;8;7;
31330;PMS5003;34067;39.548;-76.088;2023-12-20T15:07:55;9;9;
31330;PMS5003;34067;39.548;-76.088;2023-12-20T15:10:22;10;9;
31330;PMS5003;34067;39.548;-76.088;2023-12-20T15:12:50;9;7;
31330;PMS5003;34067;39.548;-76.088;2023-12-20T15:15:19;8;8;
31330;PMS5003;34067;39.548;-76.088;2023-12-20T15:17:47;9;7;
31330;PMS5003;34067;39.548;-76.088;2023-12-20T15:20:15;9;8;
31330;PMS5003;34067;39.548;-76.088;2023-12-20T15:22:43;10;9;
31330;PMS5003;34067;39.548;-76.088;2023-12-20T15:25:10;9;9;
31330;PMS5003;34067;39.548;-76.088;2023-12-20T15:27:38;9;9;
31330;PMS5003;34067;39.548;-76.088;2023-12-20T15:30:07;9;8;
31330;PMS5003;34067;39.548;-76.088;2023-12-20T15:32:35;8;8;
31330;PMS5003;34067;39.548;-76.088;2023-12-20T15:35:04;5;5;
31330;PMS5003;34067;39.548;-76.088;2023-12-20T15:37:32;10;9;
31330;PMS5003;34067;39.548;-76.088;2023-12-20T15:40:00;7;7;
31330;PMS5003;34067;39.548;-76.088;2023-12-20T15:42:28;8;7;
31330;PMS5003;34067;39.548;-76.088;2023-12-20T15:44:55;9;5;
31330;PMS5003;34067;39.548;-76.088;2023-12-20T15:47:23;9;9;
31330;PMS5003;34067;39.548;-76.088;2023-12-20T15:49:51;9;8;
31330;PMS5003;34067;39.548;-76.088;2023-12-20T15:52:18;7;7;
31330;PMS5003;34067;39.548;-76.088;2023-12-20T15:54:46;9;8;
31330;PMS5003;34067;39.548;-76.088;2023-12-20T15:57:14;11;8;
31330;PMS5003;34067;39.548;-76.088;2023-12-20T15:59:42;7;7;
31330;PMS5003;34067;39.548;-76.088;2023-12-20T16:02:09;7;7;
31330;PMS5003;34067;39.548;-76.088;2023-12-20T16:04:37;9;9;
31330;PMS5003;34067;39.548;-76.088;2023-12-20T16:07:04;8;7;
31330;PMS5003;34067;39.548;-76.088;2023-12-20T16:09:32;9;7;
31330;PMS5003;34067;39.548;-76.088;2023-12-20T16:12:00;10;10;
31330;PMS5003;34067;39.548;-76.088;2023-12-20T16:14:27;10;9;
31330;PMS5003;34067;39.548;-76.088;2023-12-20T16:16:55;8;7;
31330;PMS5003;34067;39.548;-76.088;2023-12-20T16:19:23;8;7;
31330;PMS5003;34067;39.548;-76.088;2023-12-20T16:21:51;10;8;
31330;PMS5003;34067;39.548;-76.088;2023-12-20T16:24:18;8;7;